KMRN Airport (Foothills Regional) Information

FAA: MRN - ICAO: KMRN

KMRN Airport Location

State North Carolina
County Caldwell
City Morganton
KMRN Airport is 6 miles northeast of Morganton, NC.
Latitude 35-49-12.8000N
Longitude 081-36-41.1000W
Elevation 1,269ft

KMRN Airport METARs

METAR KMRN 181315Z AUTO 31003KT 10SM CLR M05/M08 A3014 RMK AO2 T10481079
Altimeter 30.14"
Temperature -4.8°C (23.4°F)
Wind 310° at 3KT
Clouds Skies are clear.
Visibility 10.0mi
Time observed: 2022-01-18T13:15:00Z

KMRN Airport Details

Status Operational
Activation December 1945
Ownership Public
Usage Public
Chart CHARLOTTE
ATC on-site No
Beacon schedule sunset-sunrise
Beacon color clear green

KMRN Airport Contacts

Owner FOOTHILLS REGIONAL AIRPORT AUTHORIT
Owner address 3566 FOOTHILLS AIRPORT RD, MORGANTON, NC 28655
Owner phone 828-757-0099
Manager N/A
Manager address N/A, N/A
Manager phone 919-235-4794

KMRN Airport (Foothills Regional) Radio Frequencies

KMRN (Airport) Radio Frequencies

UNICOM 122.7
Common traffic advisory frequency (CTAF) 122.7